sensor_id;sensor_type;location;lat;lon;timestamp;temperature;humidity
24448;DHT22;13348;50.984;5.822;2023-10-08T00:02:09;16.90;99.90
24448;DHT22;13348;50.984;5.822;2023-10-08T00:04:36;16.90;99.90
24448;DHT22;13348;50.984;5.822;2023-10-08T00:07:03;16.90;99.90
24448;DHT22;13348;50.984;5.822;2023-10-08T00:09:33;16.70;99.90
24448;DHT22;13348;50.984;5.822;2023-10-08T00:12:02;16.80;99.90
24448;DHT22;13348;50.984;5.822;2023-10-08T00:14:31;16.70;99.90
24448;DHT22;13348;50.984;5.822;2023-10-08T00:16:58;16.80;99.90
24448;DHT22;13348;50.984;5.822;2023-10-08T00:19:25;16.70;99.90
24448;DHT22;13348;50.984;5.822;2023-10-08T00:21:59;16.70;99.90
24448;DHT22;13348;50.984;5.822;2023-10-08T00:24:31;16.60;99.90
24448;DHT22;13348;50.984;5.822;2023-10-08T00:26:59;16.60;99.90
24448;DHT22;13348;50.984;5.822;2023-10-08T00:29:25;16.60;99.90
24448;DHT22;13348;50.984;5.822;2023-10-08T00:31:54;16.50;99.90
24448;DHT22;13348;50.984;5.822;2023-10-08T00:34:22;16.50;99.90
24448;DHT22;13348;50.984;5.822;2023-10-08T00:36:50;16.60;99.90
24448;DHT22;13348;50.984;5.822;2023-10-08T00:39:17;16.60;99.90
24448;DHT22;13348;50.984;5.822;2023-10-08T00:41:48;16.60;99.90
24448;DHT22;13348;50.984;5.822;2023-10-08T00:44:15;16.60;99.90
24448;DHT22;13348;50.984;5.822;2023-10-08T00:46:48;16.50;99.90
24448;DHT22;13348;50.984;5.822;2023-10-08T00:49:19;16.50;99.90
24448;DHT22;13348;50.984;5.822;2023-10-08T00:52:05;16.50;99.90
24448;DHT22;13348;50.984;5.822;2023-10-08T00:54:51;16.40;99.90
24448;DHT22;13348;50.984;5.822;2023-10-08T00:57:32;16.30;99.90
24448;DHT22;13348;50.984;5.822;2023-10-08T01:00:02;16.30;99.90
24448;DHT22;13348;50.984;5.822;2023-10-08T01:02:32;16.30;99.90
24448;DHT22;13348;50.984;5.822;2023-10-08T01:05:12;16.30;99.90
24448;DHT22;13348;50.984;5.822;2023-10-08T01:07:40;16.30;99.90
24448;DHT22;13348;50.984;5.822;2023-10-08T01:10:10;16.30;99.90
24448;DHT22;13348;50.984;5.822;2023-10-08T01:12:39;16.20;99.90
24448;DHT22;13348;50.984;5.822;2023-10-08T01:15:20;16.10;99.90
24448;DHT22;13348;50.984;5.822;2023-10-08T01:17:53;16.00;99.90
24448;DHT22;13348;50.984;5.822;2023-10-08T01:20:26;16.00;99.90
24448;DHT22;13348;50.984;5.822;2023-10-08T01:23:02;16.00;99.90
24448;DHT22;13348;50.984;5.822;2023-10-08T01:25:32;15.90;99.90
24448;DHT22;13348;50.984;5.822;2023-10-08T01:27:59;15.90;99.90
24448;DHT22;13348;50.984;5.822;2023-10-08T01:30:33;15.90;99.90
24448;DHT22;13348;50.984;5.822;2023-10-08T01:33:07;15.80;99.90
24448;DHT22;13348;50.984;5.822;2023-10-08T01:35:37;15.80;99.90
24448;DHT22;13348;50.984;5.822;2023-10-08T01:38:05;15.70;99.90
24448;DHT22;13348;50.984;5.822;2023-10-08T01:40:39;15.70;99.90
24448;DHT22;13348;50.984;5.822;2023-10-08T01:43:06;15.80;99.90
24448;DHT22;13348;50.984;5.822;2023-10-08T01:45:35;15.70;99.90
24448;DHT22;13348;50.984;5.822;2023-10-08T01:48:05;15.60;99.90
24448;DHT22;13348;50.984;5.822;2023-10-08T01:50:35;15.60;99.90
24448;DHT22;13348;50.984;5.822;2023-10-08T01:53:02;15.60;99.90
24448;DHT22;13348;50.984;5.822;2023-10-08T01:55:33;15.50;99.90
24448;DHT22;13348;50.984;5.822;2023-10-08T01:58:12;15.60;99.90
24448;DHT22;13348;50.984;5.822;2023-10-08T02:00:41;15.60;99.90
24448;DHT22;13348;50.984;5.822;2023-10-08T02:03:09;15.70;99.90
24448;DHT22;13348;50.984;5.822;2023-10-08T02:05:36;15.80;99.90
24448;DHT22;13348;50.984;5.822;2023-10-08T02:08:07;15.70;99.90
24448;DHT22;13348;50.984;5.822;2023-10-08T02:10:37;15.70;99.90
24448;DHT22;13348;50.984;5.822;2023-10-08T02:13:04;15.90;99.90
24448;DHT22;13348;50.984;5.822;2023-10-08T02:15:31;15.90;99.90
24448;DHT22;13348;50.984;5.822;2023-10-08T02:17:58;15.90;99.90
24448;DHT22;13348;50.984;5.822;2023-10-08T02:20:25;15.90;99.90
24448;DHT22;13348;50.984;5.822;2023-10-08T02:22:53;16.00;99.90
24448;DHT22;13348;50.984;5.822;2023-10-08T02:25:20;16.00;99.90
24448;DHT22;13348;50.984;5.822;2023-10-08T02:27:49;16.00;99.90
24448;DHT22;13348;50.984;5.822;2023-10-08T02:30:16;16.00;99.90
24448;DHT22;13348;50.984;5.822;2023-10-08T02:32:44;16.00;99.90
24448;DHT22;13348;50.984;5.822;2023-10-08T02:35:12;16.00;99.90
24448;DHT22;13348;50.984;5.822;2023-10-08T02:37:39;16.10;99.90
24448;DHT22;13348;50.984;5.822;2023-10-08T02:40:07;16.00;99.90
24448;DHT22;13348;50.984;5.822;2023-10-08T02:42:42;16.00;99.90
24448;DHT22;13348;50.984;5.822;2023-10-08T02:45:12;16.00;99.90
24448;DHT22;13348;50.984;5.822;2023-10-08T02:47:40;16.00;99.90
24448;DHT22;13348;50.984;5.822;2023-10-08T02:50:07;16.00;99.90
24448;DHT22;13348;50.984;5.822;2023-10-08T02:52:35;15.90;99.90
24448;DHT22;13348;50.984;5.822;2023-10-08T02:55:02;15.90;99.90
24448;DHT22;13348;50.984;5.822;2023-10-08T02:57:30;15.90;99.90
24448;DHT22;13348;50.984;5.822;2023-10-08T02:59:57;15.90;99.90
24448;DHT22;13348;50.984;5.822;2023-10-08T03:02:26;15.80;99.90
24448;DHT22;13348;50.984;5.822;2023-10-08T03:04:54;15.90;99.90
24448;DHT22;13348;50.984;5.822;2023-10-08T03:07:21;15.90;99.90
24448;DHT22;13348;50.984;5.822;2023-10-08T03:09:48;15.90;99.90
24448;DHT22;13348;50.984;5.822;2023-10-08T03:12:15;15.90;99.90
24448;DHT22;13348;50.984;5.822;2023-10-08T03:14:43;15.90;99.90
24448;DHT22;13348;50.984;5.822;2023-10-08T03:17:15;15.90;99.90
24448;DHT22;13348;50.984;5.822;2023-10-08T03:19:47;15.80;99.90
24448;DHT22;13348;50.984;5.822;2023-10-08T03:22:14;15.80;99.90
24448;DHT22;13348;50.984;5.822;2023-10-08T03:24:44;15.70;99.90
24448;DHT22;13348;50.984;5.822;2023-10-08T03:27:14;15.70;99.90
24448;DHT22;13348;50.984;5.822;2023-10-08T03:29:45;15.70;99.90
24448;DHT22;13348;50.984;5.822;2023-10-08T03:32:13;15.60;99.90
24448;DHT22;13348;50.984;5.822;2023-10-08T03:34:43;15.60;99.90
24448;DHT22;13348;50.984;5.822;2023-10-08T03:37:13;15.60;99.90
24448;DHT22;13348;50.984;5.822;2023-10-08T03:39:45;15.50;99.90
24448;DHT22;13348;50.984;5.822;2023-10-08T03:42:21;15.50;99.90
24448;DHT22;13348;50.984;5.822;2023-10-08T03:44:49;15.40;99.90
24448;DHT22;13348;50.984;5.822;2023-10-08T03:47:18;15.40;99.90
24448;DHT22;13348;50.984;5.822;2023-10-08T03:49:48;15.30;99.90
24448;DHT22;13348;50.984;5.822;2023-10-08T03:52:17;15.30;99.90
24448;DHT22;13348;50.984;5.822;2023-10-08T03:54:47;15.30;99.90
24448;DHT22;13348;50.984;5.822;2023-10-08T03:57:28;15.20;99.90
24448;DHT22;13348;50.984;5.822;2023-10-08T04:00:07;15.20;99.90
24448;DHT22;13348;50.984;5.822;2023-10-08T04:02:38;15.20;99.90
24448;DHT22;13348;50.984;5.822;2023-10-08T04:05:07;15.20;99.90
24448;DHT22;13348;50.984;5.822;2023-10-08T04:07:46;15.10;99.90
24448;DHT22;13348;50.984;5.822;2023-10-08T04:10:27;15.20;99.90
24448;DHT22;13348;50.984;5.822;2023-10-08T04:13:08;15.10;99.90
24448;DHT22;13348;50.984;5.822;2023-10-08T04:15:35;15.10;99.90
24448;DHT22;13348;50.984;5.822;2023-10-08T04:18:06;15.00;99.90
24448;DHT22;13348;50.984;5.822;2023-10-08T04:20:33;15.00;99.90
24448;DHT22;13348;50.984;5.822;2023-10-08T04:23:05;15.00;99.90
24448;DHT22;13348;50.984;5.822;2023-10-08T04:25:39;15.00;99.90
24448;DHT22;13348;50.984;5.822;2023-10-08T04:28:07;15.00;99.90
24448;DHT22;13348;50.984;5.822;2023-10-08T04:30:38;15.00;99.90
24448;DHT22;13348;50.984;5.822;2023-10-08T04:33:07;15.00;99.90
24448;DHT22;13348;50.984;5.822;2023-10-08T04:35:38;14.90;99.90
24448;DHT22;13348;50.984;5.822;2023-10-08T04:38:15;14.90;99.90
24448;DHT22;13348;50.984;5.822;2023-10-08T04:40:43;14.90;99.90
24448;DHT22;13348;50.984;5.822;2023-10-08T04:43:14;14.90;99.90
24448;DHT22;13348;50.984;5.822;2023-10-08T04:45:47;14.90;99.90
24448;DHT22;13348;50.984;5.822;2023-10-08T04:48:14;14.90;99.90
24448;DHT22;13348;50.984;5.822;2023-10-08T04:50:46;14.90;99.90
24448;DHT22;13348;50.984;5.822;2023-10-08T04:53:26;14.90;99.90
24448;DHT22;13348;50.984;5.822;2023-10-08T04:55:58;14.90;99.90
24448;DHT22;13348;50.984;5.822;2023-10-08T04:58:28;14.90;99.90
24448;DHT22;13348;50.984;5.822;2023-10-08T05:00:59;14.90;99.90
24448;DHT22;13348;50.984;5.822;2023-10-08T05:03:43;14.90;99.90
24448;DHT22;13348;50.984;5.822;2023-10-08T05:06:22;14.90;99.90
24448;DHT22;13348;50.984;5.822;2023-10-08T05:09:07;14.80;99.90
24448;DHT22;13348;50.984;5.822;2023-10-08T05:11:37;14.80;99.90
24448;DHT22;13348;50.984;5.822;2023-10-08T05:14:32;14.80;99.90
24448;DHT22;13348;50.984;5.822;2023-10-08T05:17:03;14.70;99.90
24448;DHT22;13348;50.984;5.822;2023-10-08T05:19:35;14.70;99.90
24448;DHT22;13348;50.984;5.822;2023-10-08T05:22:14;14.60;99.90
24448;DHT22;13348;50.984;5.822;2023-10-08T05:25:01;14.60;99.90
24448;DHT22;13348;50.984;5.822;2023-10-08T05:27:33;14.40;99.90
24448;DHT22;13348;50.984;5.822;2023-10-08T05:30:21;14.40;99.90
24448;DHT22;13348;50.984;5.822;2023-10-08T05:32:54;14.30;99.90
24448;DHT22;13348;50.984;5.822;2023-10-08T05:35:38;14.20;99.90
24448;DHT22;13348;50.984;5.822;2023-10-08T05:38:20;14.20;99.90
24448;DHT22;13348;50.984;5.822;2023-10-08T05:41:05;14.20;99.90
24448;DHT22;13348;50.984;5.822;2023-10-08T05:43:42;14.20;99.90
24448;DHT22;13348;50.984;5.822;2023-10-08T05:46:21;14.20;99.90
24448;DHT22;13348;50.984;5.822;2023-10-08T05:49:12;14.10;99.90
24448;DHT22;13348;50.984;5.822;2023-10-08T05:51:51;14.20;99.90
24448;DHT22;13348;50.984;5.822;2023-10-08T05:54:32;14.20;99.90
24448;DHT22;13348;50.984;5.822;2023-10-08T05:57:14;14.10;99.90
24448;DHT22;13348;50.984;5.822;2023-10-08T05:59:50;14.10;99.90
24448;DHT22;13348;50.984;5.822;2023-10-08T06:02:40;14.10;99.90
24448;DHT22;13348;50.984;5.822;2023-10-08T06:05:26;14.20;99.90
24448;DHT22;13348;50.984;5.822;2023-10-08T06:07:58;14.20;99.90
24448;DHT22;13348;50.984;5.822;2023-10-08T06:10:37;14.20;99.90
24448;DHT22;13348;50.984;5.822;2023-10-08T06:13:18;14.20;99.90
24448;DHT22;13348;50.984;5.822;2023-10-08T06:15:56;14.30;99.90
24448;DHT22;13348;50.984;5.822;2023-10-08T06:18:31;14.30;99.90
24448;DHT22;13348;50.984;5.822;2023-10-08T06:20:59;14.40;99.90
24448;DHT22;13348;50.984;5.822;2023-10-08T06:23:26;14.40;99.90
24448;DHT22;13348;50.984;5.822;2023-10-08T06:25:54;14.30;99.90
24448;DHT22;13348;50.984;5.822;2023-10-08T06:28:25;14.30;99.90
24448;DHT22;13348;50.984;5.822;2023-10-08T06:30:52;14.40;99.90
24448;DHT22;13348;50.984;5.822;2023-10-08T06:33:20;14.40;99.90
24448;DHT22;13348;50.984;5.822;2023-10-08T06:35:47;14.40;99.90
24448;DHT22;13348;50.984;5.822;2023-10-08T06:38:27;14.40;99.90
24448;DHT22;13348;50.984;5.822;2023-10-08T06:40:56;14.40;99.90
24448;DHT22;13348;50.984;5.822;2023-10-08T06:43:27;14.40;99.90
24448;DHT22;13348;50.984;5.822;2023-10-08T06:45:54;14.40;99.90
24448;DHT22;13348;50.984;5.822;2023-10-08T06:48:23;14.50;99.90
24448;DHT22;13348;50.984;5.822;2023-10-08T06:50:51;14.60;99.90
24448;DHT22;13348;50.984;5.822;2023-10-08T06:53:22;14.70;99.90
24448;DHT22;13348;50.984;5.822;2023-10-08T06:55:49;14.70;99.90
24448;DHT22;13348;50.984;5.822;2023-10-08T06:58:22;14.70;99.90
24448;DHT22;13348;50.984;5.822;2023-10-08T07:00:50;14.80;99.90
24448;DHT22;13348;50.984;5.822;2023-10-08T07:03:18;14.90;99.90
24448;DHT22;13348;50.984;5.822;2023-10-08T07:05:47;14.90;99.90
24448;DHT22;13348;50.984;5.822;2023-10-08T07:08:23;15.00;99.90
24448;DHT22;13348;50.984;5.822;2023-10-08T07:10:50;15.20;99.90
24448;DHT22;13348;50.984;5.822;2023-10-08T07:13:18;15.30;99.90
24448;DHT22;13348;50.984;5.822;2023-10-08T07:15:48;15.30;99.90
24448;DHT22;13348;50.984;5.822;2023-10-08T07:18:16;15.40;99.90
24448;DHT22;13348;50.984;5.822;2023-10-08T07:20:50;15.50;99.90
24448;DHT22;13348;50.984;5.822;2023-10-08T07:23:19;15.50;99.90
24448;DHT22;13348;50.984;5.822;2023-10-08T07:25:53;15.60;99.90
24448;DHT22;13348;50.984;5.822;2023-10-08T07:28:24;15.60;99.90
24448;DHT22;13348;50.984;5.822;2023-10-08T07:30:51;15.70;99.90
24448;DHT22;13348;50.984;5.822;2023-10-08T07:33:20;15.80;99.90
24448;DHT22;13348;50.984;5.822;2023-10-08T07:35:50;15.90;99.90
24448;DHT22;13348;50.984;5.822;2023-10-08T07:38:25;15.90;99.90
24448;DHT22;13348;50.984;5.822;2023-10-08T07:40:54;15.80;99.90
24448;DHT22;13348;50.984;5.822;2023-10-08T07:43:21;15.80;99.90
24448;DHT22;13348;50.984;5.822;2023-10-08T07:45:48;15.80;99.90
24448;DHT22;13348;50.984;5.822;2023-10-08T07:48:20;15.80;99.90
24448;DHT22;13348;50.984;5.822;2023-10-08T07:50:48;15.80;99.90
24448;DHT22;13348;50.984;5.822;2023-10-08T07:53:16;15.90;99.90
24448;DHT22;13348;50.984;5.822;2023-10-08T07:55:46;16.00;99.90
24448;DHT22;13348;50.984;5.822;2023-10-08T07:58:17;16.00;99.90
24448;DHT22;13348;50.984;5.822;2023-10-08T08:00:44;16.00;99.90
24448;DHT22;13348;50.984;5.822;2023-10-08T08:03:19;16.10;99.90
24448;DHT22;13348;50.984;5.822;2023-10-08T08:05:47;16.10;99.90
24448;DHT22;13348;50.984;5.822;2023-10-08T08:08:19;16.20;99.90
24448;DHT22;13348;50.984;5.822;2023-10-08T08:10:48;16.30;99.90
24448;DHT22;13348;50.984;5.822;2023-10-08T08:13:15;16.30;99.90
24448;DHT22;13348;50.984;5.822;2023-10-08T08:15:46;16.40;99.90
24448;DHT22;13348;50.984;5.822;2023-10-08T08:18:16;16.50;99.90
24448;DHT22;13348;50.984;5.822;2023-10-08T08:20:49;16.40;99.90
24448;DHT22;13348;50.984;5.822;2023-10-08T08:23:16;16.50;99.90
24448;DHT22;13348;50.984;5.822;2023-10-08T08:25:43;16.60;99.90
24448;DHT22;13348;50.984;5.822;2023-10-08T08:28:31;16.80;99.90
24448;DHT22;13348;50.984;5.822;2023-10-08T08:31:01;16.90;99.90
24448;DHT22;13348;50.984;5.822;2023-10-08T08:33:30;16.90;99.90
24448;DHT22;13348;50.984;5.822;2023-10-08T08:36:18;16.90;99.90
24448;DHT22;13348;50.984;5.822;2023-10-08T08:38:46;17.10;99.90
24448;DHT22;13348;50.984;5.822;2023-10-08T08:41:13;17.20;99.90
24448;DHT22;13348;50.984;5.822;2023-10-08T08:43:43;17.20;99.90
24448;DHT22;13348;50.984;5.822;2023-10-08T08:46:10;17.30;99.90
24448;DHT22;13348;50.984;5.822;2023-10-08T08:48:39;17.20;99.90
24448;DHT22;13348;50.984;5.822;2023-10-08T08:51:06;17.30;99.90
24448;DHT22;13348;50.984;5.822;2023-10-08T08:53:36;17.30;99.90
24448;DHT22;13348;50.984;5.822;2023-10-08T08:56:03;17.60;99.90
24448;DHT22;13348;50.984;5.822;2023-10-08T08:58:32;17.60;99.90
24448;DHT22;13348;50.984;5.822;2023-10-08T09:01:00;17.80;99.90
24448;DHT22;13348;50.984;5.822;2023-10-08T09:03:28;18.00;99.90
24448;DHT22;13348;50.984;5.822;2023-10-08T09:05:56;18.10;99.90
24448;DHT22;13348;50.984;5.822;2023-10-08T09:08:27;18.40;99.90
24448;DHT22;13348;50.984;5.822;2023-10-08T09:10:58;18.60;99.90
24448;DHT22;13348;50.984;5.822;2023-10-08T09:13:26;18.70;99.90
24448;DHT22;13348;50.984;5.822;2023-10-08T09:15:56;18.80;99.90
24448;DHT22;13348;50.984;5.822;2023-10-08T09:18:23;18.70;99.90
24448;DHT22;13348;50.984;5.822;2023-10-08T09:20:52;18.40;99.90
24448;DHT22;13348;50.984;5.822;2023-10-08T09:23:20;18.30;99.90
24448;DHT22;13348;50.984;5.822;2023-10-08T09:25:48;18.40;99.90
24448;DHT22;13348;50.984;5.822;2023-10-08T09:28:19;18.70;99.90
24448;DHT22;13348;50.984;5.822;2023-10-08T09:30:47;18.60;99.90
24448;DHT22;13348;50.984;5.822;2023-10-08T09:33:14;18.40;99.90
24448;DHT22;13348;50.984;5.822;2023-10-08T09:35:45;18.20;99.90
24448;DHT22;13348;50.984;5.822;2023-10-08T09:38:12;18.20;99.90
24448;DHT22;13348;50.984;5.822;2023-10-08T09:40:41;17.90;99.90
24448;DHT22;13348;50.984;5.822;2023-10-08T09:43:09;18.30;99.90
24448;DHT22;13348;50.984;5.822;2023-10-08T09:45:38;18.80;99.90
24448;DHT22;13348;50.984;5.822;2023-10-08T09:48:07;19.20;99.90
24448;DHT22;13348;50.984;5.822;2023-10-08T09:50:38;20.20;99.90
24448;DHT22;13348;50.984;5.822;2023-10-08T09:53:07;20.70;99.90
24448;DHT22;13348;50.984;5.822;2023-10-08T09:55:43;20.80;99.90
24448;DHT22;13348;50.984;5.822;2023-10-08T09:58:11;20.60;99.90
24448;DHT22;13348;50.984;5.822;2023-10-08T10:00:41;21.10;99.90
24448;DHT22;13348;50.984;5.822;2023-10-08T10:03:10;21.90;99.90
24448;DHT22;13348;50.984;5.822;2023-10-08T10:05:38;23.10;99.90
24448;DHT22;13348;50.984;5.822;2023-10-08T10:08:05;22.80;99.90
24448;DHT22;13348;50.984;5.822;2023-10-08T10:10:36;23.20;99.90
24448;DHT22;13348;50.984;5.822;2023-10-08T10:13:04;24.40;99.90
24448;DHT22;13348;50.984;5.822;2023-10-08T10:15:33;23.90;99.90
24448;DHT22;13348;50.984;5.822;2023-10-08T10:18:09;23.80;99.90
24448;DHT22;13348;50.984;5.822;2023-10-08T10:20:39;22.80;99.90
24448;DHT22;13348;50.984;5.822;2023-10-08T10:25:53;24.00;99.90
24448;DHT22;13348;50.984;5.822;2023-10-08T10:28:23;23.80;99.90
24448;DHT22;13348;50.984;5.822;2023-10-08T10:30:50;23.80;99.90
24448;DHT22;13348;50.984;5.822;2023-10-08T10:33:18;23.80;99.90
24448;DHT22;13348;50.984;5.822;2023-10-08T10:35:51;22.70;99.90
24448;DHT22;13348;50.984;5.822;2023-10-08T10:38:19;23.20;99.90
24448;DHT22;13348;50.984;5.822;2023-10-08T10:40:48;23.60;99.90
24448;DHT22;13348;50.984;5.822;2023-10-08T10:43:23;24.30;99.90
24448;DHT22;13348;50.984;5.822;2023-10-08T10:45:58;24.30;99.90
24448;DHT22;13348;50.984;5.822;2023-10-08T10:48:32;24.80;99.90
24448;DHT22;13348;50.984;5.822;2023-10-08T10:51:04;25.50;99.90
24448;DHT22;13348;50.984;5.822;2023-10-08T10:53:35;24.80;99.90
24448;DHT22;13348;50.984;5.822;2023-10-08T10:56:12;25.00;99.90
24448;DHT22;13348;50.984;5.822;2023-10-08T10:58:45;25.50;99.90
24448;DHT22;13348;50.984;5.822;2023-10-08T11:01:11;25.40;99.90
24448;DHT22;13348;50.984;5.822;2023-10-08T11:03:51;24.50;99.90
24448;DHT22;13348;50.984;5.822;2023-10-08T11:06:17;24.60;99.90
24448;DHT22;13348;50.984;5.822;2023-10-08T11:08:49;25.10;99.90
24448;DHT22;13348;50.984;5.822;2023-10-08T11:11:16;26.10;99.90
24448;DHT22;13348;50.984;5.822;2023-10-08T11:13:43;25.60;99.90
24448;DHT22;13348;50.984;5.822;2023-10-08T11:16:17;25.90;99.90
24448;DHT22;13348;50.984;5.822;2023-10-08T11:18:47;25.70;99.90
24448;DHT22;13348;50.984;5.822;2023-10-08T11:21:17;25.40;99.90
24448;DHT22;13348;50.984;5.822;2023-10-08T11:23:50;25.10;99.90
24448;DHT22;13348;50.984;5.822;2023-10-08T11:26:21;24.50;99.90
24448;DHT22;13348;50.984;5.822;2023-10-08T11:28:57;24.40;99.90
24448;DHT22;13348;50.984;5.822;2023-10-08T11:31:26;24.00;99.90
24448;DHT22;13348;50.984;5.822;2023-10-08T11:33:58;23.70;99.90
24448;DHT22;13348;50.984;5.822;2023-10-08T11:36:27;23.60;99.90
24448;DHT22;13348;50.984;5.822;2023-10-08T11:38:54;23.80;99.90
24448;DHT22;13348;50.984;5.822;2023-10-08T11:41:26;24.20;99.90
24448;DHT22;13348;50.984;5.822;2023-10-08T11:43:55;23.90;99.90
24448;DHT22;13348;50.984;5.822;2023-10-08T11:46:24;23.50;99.90
24448;DHT22;13348;50.984;5.822;2023-10-08T11:48:58;23.50;99.90
24448;DHT22;13348;50.984;5.822;2023-10-08T11:51:31;23.40;99.90
24448;DHT22;13348;50.984;5.822;2023-10-08T11:53:59;24.00;99.90
24448;DHT22;13348;50.984;5.822;2023-10-08T11:56:26;24.90;99.90
24448;DHT22;13348;50.984;5.822;2023-10-08T11:58:53;25.10;99.90
24448;DHT22;13348;50.984;5.822;2023-10-08T12:01:22;24.60;99.90
24448;DHT22;13348;50.984;5.822;2023-10-08T12:03:49;24.10;99.90
24448;DHT22;13348;50.984;5.822;2023-10-08T12:06:16;24.20;99.90
24448;DHT22;13348;50.984;5.822;2023-10-08T12:08:46;24.20;99.90
24448;DHT22;13348;50.984;5.822;2023-10-08T12:11:19;24.40;99.90
24448;DHT22;13348;50.984;5.822;2023-10-08T12:13:48;24.30;99.90
24448;DHT22;13348;50.984;5.822;2023-10-08T12:16:16;24.60;99.90
24448;DHT22;13348;50.984;5.822;2023-10-08T12:18:47;25.40;99.90
24448;DHT22;13348;50.984;5.822;2023-10-08T12:21:24;26.50;99.90
24448;DHT22;13348;50.984;5.822;2023-10-08T12:23:52;26.80;99.90
24448;DHT22;13348;50.984;5.822;2023-10-08T12:26:20;26.30;99.90
24448;DHT22;13348;50.984;5.822;2023-10-08T12:28:47;26.80;99.90
24448;DHT22;13348;50.984;5.822;2023-10-08T12:31:15;25.90;99.90
24448;DHT22;13348;50.984;5.822;2023-10-08T12:33:42;24.80;99.90
24448;DHT22;13348;50.984;5.822;2023-10-08T12:36:10;24.40;99.90
24448;DHT22;13348;50.984;5.822;2023-10-08T12:38:38;24.30;99.90
24448;DHT22;13348;50.984;5.822;2023-10-08T12:41:08;25.20;99.90
24448;DHT22;13348;50.984;5.822;2023-10-08T12:43:38;25.00;99.90
24448;DHT22;13348;50.984;5.822;2023-10-08T12:46:08;24.70;99.90
24448;DHT22;13348;50.984;5.822;2023-10-08T12:48:43;25.40;99.90
24448;DHT22;13348;50.984;5.822;2023-10-08T12:51:13;25.60;99.90
24448;DHT22;13348;50.984;5.822;2023-10-08T12:53:40;25.60;99.90
24448;DHT22;13348;50.984;5.822;2023-10-08T12:56:17;26.20;99.90
24448;DHT22;13348;50.984;5.822;2023-10-08T12:58:47;27.70;99.90
24448;DHT22;13348;50.984;5.822;2023-10-08T13:01:15;27.90;99.90
24448;DHT22;13348;50.984;5.822;2023-10-08T13:03:42;27.80;99.90
24448;DHT22;13348;50.984;5.822;2023-10-08T13:06:13;28.20;99.90
24448;DHT22;13348;50.984;5.822;2023-10-08T13:08:47;28.40;99.90
24448;DHT22;13348;50.984;5.822;2023-10-08T13:11:14;27.30;99.90
24448;DHT22;13348;50.984;5.822;2023-10-08T13:13:50;26.90;99.90
24448;DHT22;13348;50.984;5.822;2023-10-08T13:16:17;26.60;99.90
24448;DHT22;13348;50.984;5.822;2023-10-08T13:18:44;26.60;99.90
24448;DHT22;13348;50.984;5.822;2023-10-08T13:21:11;26.70;99.90
24448;DHT22;13348;50.984;5.822;2023-10-08T13:23:38;26.90;99.90
24448;DHT22;13348;50.984;5.822;2023-10-08T13:26:05;25.90;99.90
24448;DHT22;13348;50.984;5.822;2023-10-08T13:28:32;26.00;99.90
24448;DHT22;13348;50.984;5.822;2023-10-08T13:31:01;25.50;99.90
24448;DHT22;13348;50.984;5.822;2023-10-08T13:33:35;25.30;99.90
24448;DHT22;13348;50.984;5.822;2023-10-08T13:36:04;25.20;99.90
24448;DHT22;13348;50.984;5.822;2023-10-08T13:38:33;25.20;99.90
24448;DHT22;13348;50.984;5.822;2023-10-08T13:41:00;25.50;99.90
24448;DHT22;13348;50.984;5.822;2023-10-08T13:43:32;25.60;99.90
24448;DHT22;13348;50.984;5.822;2023-10-08T13:46:05;25.00;99.90
24448;DHT22;13348;50.984;5.822;2023-10-08T13:48:34;24.70;99.90
24448;DHT22;13348;50.984;5.822;2023-10-08T13:51:01;24.70;99.90
24448;DHT22;13348;50.984;5.822;2023-10-08T13:53:30;24.70;99.90
24448;DHT22;13348;50.984;5.822;2023-10-08T13:55:58;24.60;99.90
24448;DHT22;13348;50.984;5.822;2023-10-08T13:58:26;24.80;99.90
24448;DHT22;13348;50.984;5.822;2023-10-08T14:00:55;24.70;99.90
24448;DHT22;13348;50.984;5.822;2023-10-08T14:03:27;24.80;99.90
24448;DHT22;13348;50.984;5.822;2023-10-08T14:05:57;24.70;99.90
24448;DHT22;13348;50.984;5.822;2023-10-08T14:08:28;25.10;99.90
24448;DHT22;13348;50.984;5.822;2023-10-08T14:10:56;26.10;99.90
24448;DHT22;13348;50.984;5.822;2023-10-08T14:13:28;26.30;99.90
24448;DHT22;13348;50.984;5.822;2023-10-08T14:15:57;26.80;99.90
24448;DHT22;13348;50.984;5.822;2023-10-08T14:18:24;27.10;99.90
24448;DHT22;13348;50.984;5.822;2023-10-08T14:20:55;26.40;99.90
24448;DHT22;13348;50.984;5.822;2023-10-08T14:23:22;26.10;99.90
24448;DHT22;13348;50.984;5.822;2023-10-08T14:25:50;26.50;99.90
24448;DHT22;13348;50.984;5.822;2023-10-08T14:28:17;26.90;99.90
24448;DHT22;13348;50.984;5.822;2023-10-08T14:31:06;27.00;99.90
24448;DHT22;13348;50.984;5.822;2023-10-08T14:33:33;26.40;99.90
24448;DHT22;13348;50.984;5.822;2023-10-08T14:36:09;26.10;99.90
24448;DHT22;13348;50.984;5.822;2023-10-08T14:38:53;25.90;99.90
24448;DHT22;13348;50.984;5.822;2023-10-08T14:41:37;25.00;99.90
24448;DHT22;13348;50.984;5.822;2023-10-08T14:44:24;24.30;99.90
24448;DHT22;13348;50.984;5.822;2023-10-08T14:46:51;24.00;99.90
24448;DHT22;13348;50.984;5.822;2023-10-08T14:49:20;23.80;99.90
24448;DHT22;13348;50.984;5.822;2023-10-08T14:51:49;24.00;99.90
24448;DHT22;13348;50.984;5.822;2023-10-08T14:54:18;23.80;99.90
24448;DHT22;13348;50.984;5.822;2023-10-08T14:56:46;23.60;99.90
24448;DHT22;13348;50.984;5.822;2023-10-08T14:59:14;23.50;99.90
24448;DHT22;13348;50.984;5.822;2023-10-08T15:01:43;23.60;99.90
24448;DHT22;13348;50.984;5.822;2023-10-08T15:04:10;23.70;99.90
24448;DHT22;13348;50.984;5.822;2023-10-08T15:06:37;24.00;99.90
24448;DHT22;13348;50.984;5.822;2023-10-08T15:09:06;24.20;99.90
24448;DHT22;13348;50.984;5.822;2023-10-08T15:11:34;24.40;99.90
24448;DHT22;13348;50.984;5.822;2023-10-08T15:14:02;24.50;99.90
24448;DHT22;13348;50.984;5.822;2023-10-08T15:16:35;24.20;99.90
24448;DHT22;13348;50.984;5.822;2023-10-08T15:19:02;24.10;99.90
24448;DHT22;13348;50.984;5.822;2023-10-08T15:21:30;23.80;99.90
24448;DHT22;13348;50.984;5.822;2023-10-08T15:23:58;23.50;99.90
24448;DHT22;13348;50.984;5.822;2023-10-08T15:26:32;23.30;99.90
24448;DHT22;13348;50.984;5.822;2023-10-08T15:28:59;23.10;99.90
24448;DHT22;13348;50.984;5.822;2023-10-08T15:31:28;23.00;99.90
24448;DHT22;13348;50.984;5.822;2023-10-08T15:33:55;22.90;99.90
24448;DHT22;13348;50.984;5.822;2023-10-08T15:36:22;22.70;99.90
24448;DHT22;13348;50.984;5.822;2023-10-08T15:38:49;22.70;99.90
24448;DHT22;13348;50.984;5.822;2023-10-08T15:41:17;22.60;99.90
24448;DHT22;13348;50.984;5.822;2023-10-08T15:43:47;22.50;99.90
24448;DHT22;13348;50.984;5.822;2023-10-08T15:46:17;22.40;99.90
24448;DHT22;13348;50.984;5.822;2023-10-08T15:48:44;22.60;99.90
24448;DHT22;13348;50.984;5.822;2023-10-08T15:51:11;22.50;99.90
24448;DHT22;13348;50.984;5.822;2023-10-08T15:53:38;22.00;99.90
24448;DHT22;13348;50.984;5.822;2023-10-08T15:56:05;21.90;99.90